createdAt,value
2023-01-11T00:03:32.281Z,3.64
2023-01-11T00:08:39.963Z,3.67
2023-01-11T00:13:47.571Z,3.65
2023-01-11T00:18:57.458Z,3.60
2023-01-11T00:24:06.574Z,3.55
2023-01-11T00:29:14.249Z,3.56
2023-01-11T00:34:22.539Z,3.56
2023-01-11T00:39:32.279Z,3.55
2023-01-11T00:44:57.526Z,3.53
2023-01-11T00:50:05.603Z,3.49
2023-01-11T00:55:13.539Z,3.48
2023-01-11T01:00:22.857Z,3.49
2023-01-11T01:05:31.122Z,3.48
2023-01-11T01:10:38.665Z,3.48
2023-01-11T01:15:46.703Z,3.45
2023-01-11T01:20:55.713Z,3.41
2023-01-11T01:26:06.308Z,3.38
2023-01-11T01:31:13.727Z,3.39
2023-01-11T01:36:21.330Z,3.40
2023-01-11T01:41:29.840Z,3.42
2023-01-11T01:46:38.999Z,3.43
2023-01-11T01:51:50.038Z,3.43
2023-01-11T01:57:01.590Z,3.43
2023-01-11T02:02:10.111Z,3.44
2023-01-11T02:07:22.425Z,3.49
2023-01-11T02:12:33.644Z,3.51
2023-01-11T02:17:41.198Z,3.50
2023-01-11T02:23:21.885Z,3.49
2023-01-11T02:28:34.948Z,3.51
2023-01-11T02:33:52.265Z,3.53
2023-01-11T02:39:11.285Z,3.54
2023-01-11T02:44:45.242Z,3.53
2023-01-11T02:49:59.279Z,3.56
2023-01-11T02:55:11.942Z,3.58
2023-01-11T03:03:53.996Z,3.72
2023-01-11T03:09:21.407Z,3.78
2023-01-11T03:14:45.065Z,3.85
2023-01-11T03:19:56.586Z,3.88
2023-01-11T03:25:15.275Z,3.93
2023-01-11T03:30:29.891Z,3.91
2023-01-11T03:35:44.315Z,3.85
2023-01-11T03:40:59.115Z,3.73
2023-01-11T03:59:58.350Z,3.58
2023-01-11T04:05:10.970Z,3.53
2023-01-11T04:10:19.704Z,3.53
2023-01-11T04:15:30.652Z,3.51
2023-01-11T04:20:40.511Z,3.47
2023-01-11T04:25:48.143Z,3.46
2023-01-11T04:31:07.135Z,3.48
2023-01-11T04:36:15.462Z,3.46
2023-01-11T04:41:40.058Z,3.37
2023-01-11T04:46:47.457Z,3.31
2023-01-11T04:51:55.786Z,3.33
2023-01-11T04:57:03.614Z,3.33
2023-01-11T05:02:11.000Z,3.33
2023-01-11T05:07:18.468Z,3.34
2023-01-11T05:12:26.429Z,3.31
2023-01-11T05:17:34.282Z,3.32
2023-01-11T05:22:41.856Z,3.38
2023-01-11T05:27:49.478Z,3.30
2023-01-11T05:32:58.996Z,3.22
2023-01-11T05:38:06.737Z,3.14
2023-01-11T05:43:14.897Z,3.17
2023-01-11T05:48:25.268Z,3.24
2023-01-11T05:53:33.149Z,3.27
2023-01-11T05:58:45.044Z,3.26
2023-01-11T06:03:52.772Z,3.25
2023-01-11T06:09:00.739Z,3.22
2023-01-11T06:14:09.217Z,3.24
2023-01-11T06:19:17.300Z,3.29
2023-01-11T06:24:26.425Z,3.36
2023-01-11T06:29:33.993Z,3.45
2023-01-11T06:34:41.319Z,3.52
2023-01-11T06:39:49.514Z,3.53
2023-01-11T06:44:57.935Z,3.51
2023-01-11T06:50:10.939Z,3.48
2023-01-11T06:55:18.733Z,3.51
2023-01-11T07:00:28.605Z,3.51
2023-01-11T07:05:37.392Z,3.50
2023-01-11T07:10:45.330Z,3.51
2023-01-11T07:15:55.240Z,3.53
2023-01-11T07:21:03.298Z,3.54
2023-01-11T07:26:10.674Z,3.58
2023-01-11T07:31:18.112Z,3.58
2023-01-11T07:36:27.572Z,3.53
2023-01-11T07:41:53.123Z,3.49
2023-01-11T07:47:01.117Z,3.53
2023-01-11T07:52:08.708Z,3.60
2023-01-11T07:57:16.054Z,3.63
2023-01-11T08:02:24.497Z,3.67
2023-01-11T08:07:32.367Z,3.72
2023-01-11T08:13:02.905Z,3.76
2023-01-11T08:18:11.755Z,3.85
2023-01-11T08:23:19.783Z,3.89
2023-01-11T08:28:27.690Z,3.94
2023-01-11T08:33:35.121Z,4.03
2023-01-11T08:38:42.947Z,4.15
2023-01-11T08:43:51.132Z,4.27
2023-01-11T08:49:01.055Z,4.35
2023-01-11T08:54:12.289Z,4.37
2023-01-11T08:59:22.475Z,4.40
2023-01-11T09:04:31.564Z,4.45
2023-01-11T09:09:39.737Z,4.47
2023-01-11T09:14:47.134Z,4.51
2023-01-11T09:19:54.968Z,4.55
2023-01-11T09:25:04.553Z,4.55
2023-01-11T09:30:15.301Z,4.53
2023-01-11T09:35:23.060Z,4.56
2023-01-11T09:40:42.377Z,4.58
2023-01-11T09:45:52.333Z,4.60
2023-01-11T09:51:02.600Z,4.64
2023-01-11T09:56:16.841Z,4.69
2023-01-11T10:01:34.246Z,4.71
2023-01-11T10:06:52.497Z,4.72
2023-01-11T10:18:43.105Z,4.77
2023-01-11T10:23:26.130Z,4.80
2023-01-11T10:28:49.886Z,4.87
2023-01-11T10:34:30.707Z,4.97
2023-01-11T10:40:06.561Z,5.02
2023-01-11T10:45:22.442Z,5.10
2023-01-11T10:50:38.925Z,5.20
2023-01-11T10:55:56.256Z,5.30
2023-01-11T11:03:12.591Z,5.49
2023-01-11T11:08:28.004Z,5.57
2023-01-11T11:13:48.195Z,5.54
2023-01-11T11:18:58.761Z,5.47
2023-01-11T11:24:15.975Z,5.52
2023-01-11T11:29:30.959Z,5.58
2023-01-11T11:34:38.108Z,5.60
2023-01-11T11:39:43.691Z,5.62
2023-01-11T11:45:18.207Z,5.61
2023-01-11T11:50:44.729Z,5.60
2023-01-11T11:55:54.855Z,5.60
2023-01-11T12:01:02.739Z,5.63
2023-01-11T12:06:10.177Z,5.66
2023-01-11T12:11:25.108Z,5.68
2023-01-11T12:16:36.860Z,5.70
2023-01-11T12:21:44.448Z,5.75
2023-01-11T12:27:06.614Z,5.76
2023-01-11T12:32:32.490Z,5.76
2023-01-11T12:37:55.938Z,5.77
2023-01-11T12:43:25.751Z,5.80
2023-01-11T12:48:50.128Z,5.83
2023-01-11T12:54:20.108Z,5.85
2023-01-11T12:59:44.531Z,5.85
2023-01-11T13:05:05.424Z,5.84
2023-01-11T13:10:25.646Z,5.84
2023-01-11T13:15:44.045Z,5.88
2023-01-11T13:21:02.491Z,5.91
2023-01-11T13:26:22.127Z,5.89
2023-01-11T13:31:30.992Z,5.85
2023-01-11T13:36:45.819Z,5.83
2023-01-11T13:41:57.281Z,5.80
2023-01-11T13:47:10.530Z,5.77
2023-01-11T13:52:20.636Z,5.73
2023-01-11T13:57:36.529Z,5.68
2023-01-11T14:02:49.614Z,5.61
2023-01-11T14:08:16.469Z,5.56
2023-01-11T14:14:04.068Z,5.52
2023-01-11T14:19:21.812Z,5.48
2023-01-11T14:24:33.932Z,5.44
2023-01-11T14:30:06.959Z,5.37
2023-01-11T14:35:42.803Z,5.29
2023-01-11T14:41:04.471Z,5.23
2023-01-11T14:46:42.123Z,5.15
2023-01-11T14:51:58.093Z,5.04
2023-01-11T14:57:05.529Z,4.94
2023-01-11T15:02:27.469Z,4.83
2023-01-11T15:07:41.189Z,4.71
2023-01-11T15:12:48.396Z,4.64
2023-01-11T15:18:16.792Z,4.59
2023-01-11T15:23:25.420Z,4.52
2023-01-11T15:28:44.277Z,4.45
2023-01-11T15:33:55.801Z,4.37
2023-01-11T15:39:08.137Z,4.28
2023-01-11T15:44:33.960Z,4.17
2023-01-11T15:50:16.739Z,4.10
2023-01-11T15:55:56.829Z,4.05
2023-01-11T16:01:28.403Z,4.01
2023-01-11T16:06:44.628Z,3.95
2023-01-11T16:12:02.911Z,3.89
2023-01-11T16:17:14.870Z,3.82
2023-01-11T16:22:25.851Z,3.76
2023-01-11T16:27:36.645Z,3.73
2023-01-11T16:32:44.435Z,3.71
2023-01-11T16:37:58.143Z,3.68
2023-01-11T16:43:10.104Z,3.61
2023-01-11T16:48:19.954Z,3.52
2023-01-11T16:53:28.442Z,3.43
2023-01-11T16:58:37.231Z,3.31
2023-01-11T17:03:52.089Z,3.22
2023-01-11T17:09:10.943Z,3.14
2023-01-11T17:14:57.048Z,3.04
2023-01-11T17:20:04.944Z,2.82
2023-01-11T17:25:21.079Z,2.59
2023-01-11T17:30:30.111Z,2.51
2023-01-11T17:35:44.944Z,2.49
2023-01-11T17:40:52.946Z,2.47
2023-01-11T17:46:03.217Z,2.44
2023-01-11T17:51:10.385Z,2.31
2023-01-11T17:56:35.289Z,2.07
2023-01-11T18:01:47.266Z,1.80
2023-01-11T18:06:56.871Z,1.62
2023-01-11T18:12:13.986Z,1.50
2023-01-11T18:17:42.146Z,1.45
2023-01-11T18:23:04.733Z,1.36
2023-01-11T18:28:29.523Z,1.17
2023-01-11T18:33:40.798Z,1.00
2023-01-11T18:38:47.794Z,0.81
2023-01-11T18:43:55.898Z,0.74
2023-01-11T18:49:03.020Z,0.88
2023-01-11T18:54:16.968Z,1.02
2023-01-11T18:59:24.132Z,1.01
2023-01-11T19:04:31.316Z,1.04
2023-01-11T19:09:38.744Z,1.10
2023-01-11T19:14:46.146Z,1.16
2023-01-11T19:19:53.285Z,1.16
2023-01-11T19:25:00.450Z,1.12
2023-01-11T19:30:06.782Z,1.07
2023-01-11T19:35:15.373Z,0.98
2023-01-11T19:40:22.775Z,0.82
2023-01-11T19:45:30.418Z,0.58
2023-01-11T19:50:37.585Z,0.49
2023-01-11T19:55:43.188Z,0.46
2023-01-11T20:03:12.164Z,0.53
2023-01-11T20:08:22.435Z,0.40
2023-01-11T20:13:30.483Z,0.42
2023-01-11T20:18:38.253Z,0.53
2023-01-11T20:23:45.862Z,0.66
2023-01-11T20:28:56.893Z,0.78
2023-01-11T20:34:07.014Z,0.86
2023-01-11T20:39:15.336Z,0.86
2023-01-11T20:44:28.074Z,0.82
2023-01-11T20:59:14.101Z,0.73
2023-01-11T21:04:22.766Z,0.63
2023-01-11T21:09:32.399Z,0.59
2023-01-11T21:14:40.163Z,0.49
2023-01-11T21:19:47.850Z,0.41
2023-01-11T21:24:55.965Z,0.36
2023-01-11T21:30:03.300Z,0.32
2023-01-11T21:35:12.014Z,0.26
2023-01-11T21:40:20.920Z,0.24
2023-01-11T21:45:29.396Z,0.21
2023-01-11T21:50:36.910Z,0.20
2023-01-11T21:55:44.391Z,0.20
2023-01-11T22:00:51.955Z,0.28
2023-01-11T22:06:05.144Z,0.34
2023-01-11T22:11:13.987Z,0.44
2023-01-11T22:16:22.210Z,0.51
2023-01-11T22:21:31.054Z,0.55
2023-01-11T22:26:39.431Z,0.62
2023-01-11T22:31:51.175Z,0.68
2023-01-11T22:36:59.201Z,0.74
2023-01-11T22:42:06.937Z,0.80
2023-01-11T22:47:17.081Z,0.83
2023-01-11T22:52:26.252Z,0.88
2023-01-11T22:57:34.781Z,0.96
2023-01-11T23:02:42.277Z,1.05
2023-01-11T23:07:50.002Z,1.10
2023-01-11T23:13:14.905Z,1.14
2023-01-11T23:18:22.925Z,1.22
2023-01-11T23:23:31.677Z,1.27
2023-01-11T23:28:39.620Z,1.33
2023-01-11T23:33:47.366Z,1.41
2023-01-11T23:38:55.906Z,1.53
2023-01-11T23:44:03.763Z,1.67
2023-01-11T23:49:14.757Z,1.79
2023-01-11T23:54:38.689Z,1.88
2023-01-11T23:59:46.768Z,1.99
